• Join FlightAware (Why Join?)
  • Login
  • US Flag 
11:22PM EDT


 

Airport Tracker/Info


-or-


 

Live Flight TrackerFlight Track Log ✈ VNR139 ✈ 06-Jun-2013 ✈ KLEX - KPBI

Flight Track Log - Related Links

Times and Time Zones

All times are in EDT time to prevent confusion due to time zone crossing. See the VNR139 flight status page for this flight to view local times or setup timezone preferences in your user account.

Time Position Orientation Groundspeed Altitude Reporting Facility
EDT Latitude Longitude Course Direction KTS MPH feet Rate Location/Type
11:27AM 37.9714 -84.6736 167° South 162 186 4,200  Level Indianapolis Center
11:28AM 37.9214 -84.6728 179° South 190 219 5,900 1,740 Climbing Indianapolis Center
11:29AM 37.8678 -84.6486 160° South 204 235 7,900 1,920 Climbing Indianapolis Center
11:30AM 37.8014 -84.6197 161° South 215 247 9,900 1,140 Climbing Indianapolis Center
11:31AM 37.5877 -84.4480 167° South  Level FlightAware Approximate
11:31AM 37.7325 -84.5931 163° South 252 290 10,300  Level Indianapolis Center
11:32AM 37.4977 -84.4210 167° South  Level FlightAware Approximate
11:32AM 37.6611 -84.5644 162° South 265 305 11,800  Level Indianapolis Center
11:33AM 37.5919 -84.5383 163° South 260 299 13,800 1,920 Climbing Indianapolis Center
11:34AM 37.5269 -84.5131 163° South 246 283 15,800 1,620 Climbing Indianapolis Center
11:35AM 37.4600 -84.4867 163° South 251 289 17,200 1,320 Climbing Indianapolis Center
11:36AM 37.3903 -84.4586 162° South 260 299 18,600 1,500 Climbing Indianapolis Center
11:37AM 37.3039 -84.4267 164° South 274 315 20,300 1,500 Climbing Indianapolis Center
11:38AM 37.2303 -84.3983 163° South 276 318 21,700 1,380 Climbing Indianapolis Center
11:39AM 37.1553 -84.3697 163° South 281 323 23,200 1,380 Climbing Indianapolis Center
11:40AM 37.0808 -84.3403 162° South 281 323 24,600 1,320 Climbing Indianapolis Center
11:41AM 37.0089 -84.3131 163° South 274 315 26,000 1,260 Climbing Indianapolis Center
11:42AM 36.9375 -84.2847 162° South 270 311 27,300 1,200 Climbing Indianapolis Center
11:43AM 36.8531 -84.2531 163° South 272 313 28,500 780 Climbing Indianapolis Center
11:44AM 36.7775 -84.2244 163° South 280 322 29,000 240 Climbing Indianapolis Center
11:45AM 36.6953 -84.1931 163° South 302 348 29,000  Level Indianapolis Center
11:46AM 36.6064 -84.1592 163° South 326 375 29,000  Level Indianapolis Center
11:47AM 36.5164 -84.1236 162° South 336 387 29,000  Level Indianapolis Center
11:48AM 36.4119 -84.0839 163° South 342 394 29,000  Level Indianapolis Center
11:49AM 36.3183 -84.0486 163° South 347 399 29,000  Level Indianapolis Center
11:50AM 36.2269 -84.0142 163° South 344 396 29,000  Level Indianapolis Center
11:51AM 36.1333 -83.9797 163° South 347 399 29,000  Level Indianapolis Center
11:52AM 36.0542 -83.9514 164° South 341 392 29,000  Level Atlanta Center
11:53AM 35.9622 -83.9156 162° South 341 392 29,000  Level Atlanta Center
11:54AM 35.8664 -83.8800 163° South 341 392 29,000  Level Atlanta Center
11:55AM 35.7744 -83.8392 160° South 346 398 29,000  Level Atlanta Center
11:56AM 35.6825 -83.7958 159° South 346 398 29,000  Level Atlanta Center
11:57AM 35.5928 -83.7553 160° South 346 398 29,000  Level Atlanta Center
11:58AM 35.4989 -83.7122 160° South 346 398 29,000  Level Atlanta Center
11:59AM 35.4069 -83.6719 160° South 346 398 29,000  Level Atlanta Center
12:00PM 35.3150 -83.6289 159° South 351 404 29,000  Level Atlanta Center
12:01PM 35.2208 -83.5861 160° South 351 404 29,000  Level Atlanta Center
12:02PM 35.1206 -83.5436 161° South 351 404 29,000  Level Atlanta Center
12:03PM 35.0286 -83.5036 160° South 351 404 29,000  Level Atlanta Center
12:04PM 34.9386 -83.4611 159° South 351 404 29,000  Level Atlanta Center
12:05PM 34.8467 -83.4211 160° South 351 404 29,000  Level Atlanta Center
12:06PM 34.7547 -83.3814 160° South 351 404 29,000  Level Atlanta Center
12:07PM 34.6647 -83.3392 159° South 351 404 29,000  Level Atlanta Center
12:08PM 34.5725 -83.2972 159° South 351 404 29,000  Level Atlanta Center
12:09PM 34.4825 -83.2550 159° South 351 404 29,000  Level Atlanta Center
12:10PM 34.3883 -83.2156 161° South 350 403 29,000  Level Atlanta Center
12:11PM 34.3006 -83.1764 160° South 351 404 29,000  Level Atlanta Center
12:12PM 34.2083 -83.1369 161° South 351 404 29,000  Level Atlanta Center
12:13PM 34.1183 -83.0978 160° South 351 404 29,000  Level Atlanta Center
12:14PM 34.0261 -83.0589 161° South 351 404 29,000  Level Atlanta Center
12:15PM 33.9444 -83.0197 158° South 345 397 29,000  Level Atlanta Center
12:16PM 33.8522 -82.9808 161° South 350 403 29,000  Level Atlanta Center
12:17PM 33.7539 -82.9419 162° South 350 403 29,000  Level Atlanta Center
12:18PM 33.6700 -82.9031 159° South 355 409 29,000  Level Atlanta Center
12:19PM 33.5778 -82.8644 161° South 355 409 29,000  Level Atlanta Center
12:20PM 33.4897 -82.8258 160° South 349 402 29,000 120 Level Atlanta Center
12:21PM 33.3892 -82.7850 161° South 349 402 29,300 300 Climbing Atlanta Center
12:22PM 33.3117 -82.7536 161° South 342 394 29,700 300 Climbing Atlanta Center
12:23PM 33.2256 -82.7153 160° South 337 388 30,000 120 Climbing Atlanta Center
12:24PM 33.1375 -82.6769 160° South 337 388 30,000  Level Atlanta Center
12:25PM 33.0472 -82.6386 160° South 337 388 30,000  Level Atlanta Center
12:27PM 32.8636 -82.6181 175° South 333 383 30,000  Level Jacksonville Center
12:28PM 32.7736 -82.5911 166° South 333 383 30,000  Level Jacksonville Center
12:29PM 32.6775 -82.5619 166° South 338 389 30,000  Level Jacksonville Center
12:30PM 32.5856 -82.5325 165° South 338 389 30,000  Level Jacksonville Center
12:31PM 32.4936 -82.5008 164° South 338 389 30,000  Level Jacksonville Center
12:32PM 32.3933 -82.4619 162° South 344 396 30,000  Level Jacksonville Center
12:33PM 32.3119 -82.4353 165° South 339 390 30,000  Level Jacksonville Center
12:34PM 32.2200 -82.4333 179° South 339 390 30,000  Level Jacksonville Center
12:35PM 32.1303 -82.4436 186° South 328 377 30,000  Level Jacksonville Center
12:36PM 32.0342 -82.4539 185° South 328 377 30,000  Level Jacksonville Center
12:37PM 31.9467 -82.4642 186° South 328 377 30,000  Level Jacksonville Center
12:38PM 31.8528 -82.4744 185° South 328 377 30,000  Level Jacksonville Center
12:39PM 31.7608 -82.4819 184° South 333 383 30,000  Level Jacksonville Center
12:40PM 31.6711 -82.4922 186° South 333 383 30,000  Level Jacksonville Center
12:41PM 31.5792 -82.5025 185° South 333 383 30,000  Level Jacksonville Center
12:42PM 31.4875 -82.5078 183° South 333 383 30,000  Level Jacksonville Center
12:44PM 31.2911 -82.5231 184° South 333 383 30,000  Level Jacksonville Center
12:45PM 31.1972 -82.5258 181° South 333 383 30,000  Level Jacksonville Center
12:46PM 31.1075 -82.5286 182° South 333 383 30,000  Level Jacksonville Center
12:47PM 31.0136 -82.5339 183° South 328 377 30,000  Level Jacksonville Center
12:48PM 30.9217 -82.5389 183° South 328 377 30,000  Level Jacksonville Center
12:49PM 30.8361 -82.5417 182° South 335 386 30,000  Level Jacksonville Center
12:50PM 30.7422 -82.5444 181° South 340 391 30,000  Level Jacksonville Center
12:51PM 30.6503 -82.5472 181° South 340 391 30,000  Level Jacksonville Center
12:52PM 30.5583 -82.5619 188° South 340 391 30,000  Level Jacksonville Center
12:53PM 30.4644 -82.5842 192° South 340 391 30,000 -360 Level Jacksonville Center
12:54PM 30.3728 -82.6036 190° South 340 391 29,300 -540 Descending Jacksonville Center
12:55PM 30.2808 -82.6281 193° South 340 391 29,000 -180 Descending Jacksonville Center
12:56PM 30.1889 -82.6450 189° South 340 391 29,000  Level Jacksonville Center
12:57PM 30.0972 -82.6692 193° South 340 391 29,000  Level Jacksonville Center
12:58PM 30.0011 -82.6911 191° South 340 391 29,000  Level Jacksonville Center
12:59PM 29.9094 -82.7056 188° South 340 391 29,000  Level Jacksonville Center
01:00PM 29.8156 -82.7203 188° South 340 391 29,000  Level Jacksonville Center
01:01PM 29.7236 -82.7300 185° South 334 384 29,000  Level Jacksonville Center
01:02PM 29.6339 -82.7086 168° South 334 384 29,000  Level Jacksonville Center
01:03PM 29.5481 -82.6658 157° South 324 373 29,000  Level Jacksonville Center
01:04PM 29.4561 -82.6397 166° South 330 380 29,000  Level Jacksonville Center
01:05PM 29.3664 -82.6186 168° South 336 387 29,000  Level Jacksonville Center
01:06PM 29.2744 -82.6142 178° South 336 387 29,000  Level Jacksonville Center
01:07PM 29.1847 -82.6167 181° South 331 381 29,000  Level Jacksonville Center
01:08PM 29.0950 -82.6217 183° South 326 375 29,000  Level Jacksonville Center
01:09PM 29.0033 -82.6292 184° South 326 375 29,000  Level Jacksonville Center
01:10PM 28.9136 -82.6389 185° South 331 381 29,000  Level Jacksonville Center
01:11PM 28.8258 -82.6556 189° South 331 381 29,000  Level Jacksonville Center
01:12PM 28.7383 -82.6772 192° South 331 381 29,000  Level Jacksonville Center
01:13PM 28.6506 -82.7008 193° South 331 381 29,000  Level Jacksonville Center
01:14PM 28.5650 -82.7247 194° South 331 381 29,000  Level Jacksonville Center
01:15PM 28.4817 -82.7508 195° South 325 374 29,000  Level Jacksonville Center
01:16PM 28.3983 -82.7744 194° South 320 368 29,000  Level Jacksonville Center
01:18PM 28.2422 -82.8039 189° South 314 361 29,000  Level Miami Center
01:19PM 28.1528 -82.7969 176° South 319 367 29,000  Level Miami Center
01:20PM 28.0636 -82.7853 173° South 319 367 29,000  Level Miami Center
01:21PM 27.9725 -82.7664 170° South 328 377 29,000  Level Miami Center
01:22PM 27.8856 -82.7525 172° South 329 379 29,000 -480 Level Miami Center
01:23PM 27.7903 -82.7358 171° South 334 384 28,100 -1,320 Descending Miami Center
01:24PM 27.6908 -82.7189 171° South 328 377 26,400 -1,800 Descending Miami Center
01:25PM 27.6225 -82.7061 171° South 305 351 24,600 -1,200 Descending Miami Center
01:26PM 27.5439 -82.6903 170° South 297 342 24,000 -300 Descending Miami Center
01:27PM 27.4594 -82.6603 163° South 290 334 24,000  Level Miami Center
01:28PM 27.3814 -82.6331 163° South 302 348 24,000  Level Miami Center
01:29PM 27.3014 -82.6008 160° South 297 342 24,000  Level Miami Center
01:30PM 27.2414 -82.5817 164° South 297 342 24,000  Level Miami Center
01:31PM 27.1817 -82.5111 134° Southeast 285 328 24,000  Level Miami Center
01:32PM 27.1369 -82.4294 122° Southeast 284 327 24,000  Level Miami Center
01:33PM 27.0856 -82.3500 126° Southeast 296 341 24,000  Level Miami Center
01:34PM 27.0425 -82.2736 122° Southeast 304 350 24,000  Level Miami Center
01:35PM 26.9853 -82.1894 127° Southeast 304 350 24,000  Level Miami Center
01:36PM 26.9419 -82.1128 122° Southeast 293 337 24,000 -300 Level Miami Center
01:37PM 26.9136 -82.0300 111° Southeast 288 331 23,400 -780 Descending Miami Center
01:38PM 26.8981 -81.9456 102° East 281 323 22,500 -900 Descending Miami Center
01:39PM 26.8797 -81.8656 104° East 274 315 21,700 -1,080 Descending Miami Center
01:40PM 26.8658 -81.7836 101° East 269 310 20,400 -1,200 Descending Miami Center
01:41PM 26.8497 -81.7061 103° East 258 297 19,400 -1,080 Descending Miami Center
01:42PM 26.8314 -81.6331 106° East 251 289 18,300 -1,140 Descending Miami Center
01:43PM 26.8064 -81.5694 114° Southeast 231 266 17,200 -660 Descending Miami Center
01:44PM 26.7789 -81.5078 117° Southeast 233 268 17,000 -660 Descending Miami Center
01:45PM 26.7417 -81.4342 120° Southeast 257 296 15,900 -1,020 Descending Miami Center
01:46PM 26.7044 -81.3536 117° Southeast 274 315 15,000 -480 Descending Miami Center
01:47PM 26.6733 -81.2783 115° Southeast 260 299 15,000 -600 Level Miami Center
01:48PM 26.6544 -81.2194 110° East 239 275 13,800 -1,200 Descending Miami Center
01:49PM 26.6333 -81.1536 110° East 228 262 12,700 -900 Descending Miami Center
01:50PM 26.6128 -81.0669 105° East 250 288 12,000 -720 Descending Miami Center
01:51PM 26.6031 -80.9758 97° East 277 319 11,300 -720 Descending Miami Center
01:52PM 26.6139 -80.8833 83° East 296 341 10,600 -600 Descending Miami Center
01:53PM 26.6267 -80.8003 80° East 301 346 10,100 -540 Descending Miami Center
01:54PM 26.6478 -80.7081 76° East 293 337 9,600 -780 Descending Miami Center
01:55PM 26.6736 -80.6019 75° East 307 353 8,600 -1,260 Descending Miami Center
01:56PM 26.6964 -80.5236 72° East 300 345 7,100 -1,800 Descending Miami Center
01:57PM 26.7028 -80.4400 85° East 258 297 5,000 -2,040 Descending Miami Center
01:58PM 26.6939 -80.3769 99° East 217 250 3,100 -1,080 Descending Miami Center
01:59PM 26.6933 -80.3142 91° East 203 234 2,900 -360 Descending Miami Center
02:00PM 26.7117 -80.2450 73° East 211 243 2,400 -540 Descending Miami Center
02:01PM 26.7192 -80.1825 82° East 226 260 1,900 -540 Descending Miami Center
02:03PM 26.6832 -80.0956 50° Northeast  Level Estimated
02:10PM 26.6832 -80.0956 50° Northeast  Level Estimated
02:11PM 26.6832 -80.0956 50° Northeast  Level Estimated
02:12PM 26.6832 -80.0956 50° Northeast  Level Estimated